createdAt,value
2018-10-21T00:01:23.401Z,16.65
2018-10-21T00:03:52.477Z,16.75
2018-10-21T00:06:21.847Z,16.61
2018-10-21T00:08:50.917Z,16.70
2018-10-21T00:11:19.897Z,16.59
2018-10-21T00:13:49.077Z,16.57
2018-10-21T00:16:18.080Z,16.58
2018-10-21T00:18:47.156Z,16.62
2018-10-21T00:21:16.540Z,16.66
2018-10-21T00:23:45.513Z,16.74
2018-10-21T00:26:14.508Z,16.60
2018-10-21T00:28:43.553Z,16.49
2018-10-21T00:31:12.575Z,16.64
2018-10-21T00:33:41.608Z,16.39
2018-10-21T00:36:10.938Z,16.44
2018-10-21T00:38:39.958Z,16.51
2018-10-21T00:41:09.058Z,16.52
2018-10-21T00:43:38.106Z,16.51
2018-10-21T00:46:07.571Z,16.64
2018-10-21T00:48:36.801Z,16.47
2018-10-21T00:51:06.338Z,16.48
2018-10-21T00:53:35.339Z,16.40
2018-10-21T00:56:04.419Z,16.37
2018-10-21T00:58:33.855Z,16.45
2018-10-21T01:01:02.889Z,16.53
2018-10-21T01:03:31.924Z,16.47
2018-10-21T01:06:01.043Z,16.40
2018-10-21T01:08:30.065Z,16.34
2018-10-21T01:10:59.057Z,16.32
2018-10-21T01:13:28.347Z,16.23
2018-10-21T01:15:57.332Z,16.14
2018-10-21T01:18:26.525Z,16.19
2018-10-21T01:20:55.656Z,16.20
2018-10-21T01:23:24.701Z,16.22
2018-10-21T01:25:53.754Z,16.27
2018-10-21T01:28:22.800Z,16.27
2018-10-21T01:30:51.828Z,16.18
2018-10-21T01:33:20.764Z,16.09
2018-10-21T01:35:50.136Z,16.16
2018-10-21T01:38:19.268Z,16.11
2018-10-21T01:40:49.124Z,16.16
2018-10-21T01:43:20.197Z,15.93
2018-10-21T01:45:49.217Z,15.89
2018-10-21T01:48:19.340Z,15.97
2018-10-21T01:50:48.823Z,15.94
2018-10-21T01:53:18.697Z,15.85
2018-10-21T01:55:47.668Z,15.80
2018-10-21T01:58:16.738Z,15.80
2018-10-21T02:00:45.931Z,15.75
2018-10-21T02:03:15.025Z,15.77
2018-10-21T02:05:45.078Z,15.77
2018-10-21T02:08:14.185Z,15.86
2018-10-21T02:10:43.308Z,15.83
2018-10-21T02:13:12.425Z,15.80
2018-10-21T02:15:41.381Z,15.71
2018-10-21T02:18:10.415Z,15.94
2018-10-21T02:20:39.488Z,15.87
2018-10-21T02:23:08.552Z,15.91
2018-10-21T02:25:37.682Z,16.05
2018-10-21T02:28:07.142Z,16.04
2018-10-21T02:30:36.197Z,16.11
2018-10-21T02:33:05.364Z,16.08
2018-10-21T02:35:34.433Z,16.12
2018-10-21T02:38:03.443Z,15.95
2018-10-21T02:41:44.929Z,15.93
2018-10-21T02:44:17.114Z,15.89
2018-10-21T02:46:46.919Z,15.96
2018-10-21T02:49:16.770Z,15.87
2018-10-21T02:51:50.985Z,15.84
2018-10-21T02:54:27.230Z,16.04
2018-10-21T02:56:56.344Z,15.99
2018-10-21T02:59:25.797Z,16.18
2018-10-21T03:01:54.907Z,16.18
2018-10-21T03:04:24.665Z,16.04
2018-10-21T03:06:53.708Z,15.90
2018-10-21T03:09:22.812Z,15.89
2018-10-21T03:11:52.013Z,15.86
2018-10-21T03:14:21.095Z,15.89
2018-10-21T03:16:50.125Z,15.86
2018-10-21T03:19:19.256Z,15.91
2018-10-21T03:21:48.298Z,16.09
2018-10-21T03:24:17.543Z,16.10
2018-10-21T03:26:47.516Z,16.26
2018-10-21T03:29:16.568Z,16.30
2018-10-21T03:31:45.732Z,16.20
2018-10-21T03:34:14.893Z,16.36
2018-10-21T03:36:43.899Z,16.12
2018-10-21T03:39:12.865Z,16.15
2018-10-21T03:41:42.262Z,16.09
2018-10-21T03:44:11.734Z,16.11
2018-10-21T03:46:40.949Z,16.18
2018-10-21T03:49:10.101Z,17.35
2018-10-21T03:51:39.167Z,16.85
2018-10-21T03:54:08.349Z,16.62
2018-10-21T03:56:37.828Z,16.47
2018-10-21T03:59:07.060Z,16.46
2018-10-21T04:01:36.279Z,16.44
2018-10-21T04:04:06.056Z,16.30
2018-10-21T04:06:35.250Z,16.67
2018-10-21T04:09:05.561Z,16.23
2018-10-21T04:11:34.900Z,16.23
2018-10-21T04:14:04.188Z,15.82
2018-10-21T04:16:33.435Z,15.34
2018-10-21T04:19:02.772Z,15.06
2018-10-21T04:21:32.101Z,15.01
2018-10-21T04:24:01.563Z,14.95
2018-10-21T04:26:30.844Z,15.04
2018-10-21T04:28:59.988Z,15.05
2018-10-21T04:31:29.142Z,14.99
2018-10-21T04:33:58.862Z,14.79
2018-10-21T04:36:29.979Z,14.79
2018-10-21T04:40:11.222Z,15.04
2018-10-21T04:42:40.965Z,14.97
2018-10-21T04:45:10.893Z,14.85
2018-10-21T04:47:40.292Z,15.08
2018-10-21T04:50:10.714Z,15.11
2018-10-21T04:52:39.968Z,15.22
2018-10-21T04:55:13.595Z,15.01
2018-10-21T04:57:44.159Z,14.99
2018-10-21T05:00:15.819Z,14.86
2018-10-21T05:02:45.061Z,14.69
2018-10-21T05:05:15.275Z,14.70
2018-10-21T05:07:44.876Z,14.77
2018-10-21T05:10:23.874Z,14.80
2018-10-21T05:12:53.307Z,14.82
2018-10-21T05:15:24.555Z,14.93
2018-10-21T05:17:54.900Z,14.84
2018-10-21T05:20:24.169Z,14.88
2018-10-21T05:22:53.704Z,14.80
2018-10-21T05:25:23.452Z,14.85
2018-10-21T05:27:52.624Z,15.10
2018-10-21T05:30:21.854Z,15.21
2018-10-21T05:32:51.393Z,15.15
2018-10-21T05:35:21.340Z,15.01
2018-10-21T05:37:50.558Z,15.26
2018-10-21T05:40:21.497Z,15.31
2018-10-21T05:42:51.096Z,14.99
2018-10-21T05:45:20.398Z,15.21
2018-10-21T05:47:49.538Z,15.10
2018-10-21T05:50:18.892Z,15.29
2018-10-21T05:52:48.086Z,15.46
2018-10-21T05:55:17.476Z,15.49
2018-10-21T05:57:47.021Z,15.60
2018-10-21T06:00:18.038Z,15.92
2018-10-21T06:02:47.669Z,16.23
2018-10-21T06:05:51.058Z,16.34
2018-10-21T06:08:20.250Z,16.03
2018-10-21T06:10:49.421Z,15.85
2018-10-21T06:13:18.681Z,15.49
2018-10-21T06:15:48.036Z,15.33
2018-10-21T06:18:22.758Z,15.35
2018-10-21T06:20:55.006Z,15.82
2018-10-21T06:23:24.198Z,16.14
2018-10-21T06:25:53.596Z,16.34
2018-10-21T06:28:23.147Z,16.82
2018-10-21T06:30:52.307Z,16.12
2018-10-21T06:33:21.441Z,16.66
2018-10-21T06:35:50.632Z,16.71
2018-10-21T06:38:20.026Z,16.37
2018-10-21T06:40:49.222Z,16.34
2018-10-21T06:43:18.559Z,16.09
2018-10-21T06:45:47.746Z,16.61
2018-10-21T06:48:16.989Z,16.78
2018-10-21T06:50:46.503Z,17.18
2018-10-21T06:53:15.962Z,17.27
2018-10-21T06:55:45.350Z,17.97
2018-10-21T06:58:14.840Z,17.96
2018-10-21T07:00:44.110Z,17.62
2018-10-21T07:03:13.538Z,17.88
2018-10-21T07:06:19.777Z,18.13
2018-10-21T07:08:49.739Z,18.09
2018-10-21T07:11:19.472Z,17.89
2018-10-21T07:13:48.939Z,17.78
2018-10-21T07:16:18.300Z,18.23
2018-10-21T07:18:48.489Z,17.85
2018-10-21T07:21:18.287Z,17.69
2018-10-21T07:23:48.041Z,17.90
2018-10-21T07:26:17.365Z,18.01
2018-10-21T07:28:46.523Z,18.43
2018-10-21T07:31:15.797Z,17.92
2018-10-21T07:33:45.201Z,18.15
2018-10-21T07:36:14.405Z,18.22
2018-10-21T07:38:44.553Z,18.27
2018-10-21T07:41:14.075Z,18.43
2018-10-21T07:43:43.622Z,18.36
2018-10-21T07:46:12.912Z,18.22
2018-10-21T07:48:42.005Z,18.31
2018-10-21T07:51:11.356Z,18.51
2018-10-21T07:53:40.696Z,18.43
2018-10-21T07:56:09.828Z,18.50
2018-10-21T07:58:39.035Z,18.93
2018-10-21T08:01:08.514Z,19.00
2018-10-21T08:03:37.576Z,19.03
2018-10-21T08:06:43.046Z,19.56
2018-10-21T08:09:12.717Z,19.43
2018-10-21T08:11:41.865Z,19.04
2018-10-21T08:14:11.041Z,19.44
2018-10-21T08:16:40.558Z,19.43
2018-10-21T08:19:09.620Z,19.59
2018-10-21T08:21:38.918Z,20.10
2018-10-21T08:24:08.157Z,19.79
2018-10-21T08:26:37.212Z,19.99
2018-10-21T08:29:06.640Z,20.16
2018-10-21T08:31:35.881Z,19.89
2018-10-21T08:34:05.141Z,19.94
2018-10-21T08:36:34.894Z,19.55
2018-10-21T08:39:04.529Z,19.69
2018-10-21T08:41:34.335Z,20.09
2018-10-21T08:44:04.111Z,20.58
2018-10-21T08:46:33.240Z,20.39
2018-10-21T08:49:02.416Z,20.26
2018-10-21T08:51:31.881Z,20.50
2018-10-21T08:54:01.014Z,20.36
2018-10-21T08:56:30.168Z,20.23
2018-10-21T08:58:59.994Z,20.48
2018-10-21T09:01:29.019Z,20.44
2018-10-21T09:03:58.201Z,20.72
2018-10-21T09:06:27.684Z,20.52
2018-10-21T09:08:56.765Z,20.55
2018-10-21T09:11:25.854Z,20.94
2018-10-21T09:13:55.220Z,21.09
2018-10-21T09:16:24.383Z,21.70
2018-10-21T09:18:53.743Z,21.47
2018-10-21T09:21:22.909Z,21.67
2018-10-21T09:23:52.980Z,21.43
2018-10-21T09:26:22.131Z,21.29
2018-10-21T09:28:51.254Z,21.69
2018-10-21T09:31:20.502Z,21.82
2018-10-21T09:33:49.727Z,21.47
2018-10-21T09:36:19.228Z,21.57
2018-10-21T09:38:48.303Z,22.04
2018-10-21T09:41:17.375Z,22.42
2018-10-21T09:43:46.921Z,22.45
2018-10-21T09:46:15.975Z,22.34
2018-10-21T09:48:45.109Z,22.98
2018-10-21T09:51:14.397Z,22.97
2018-10-21T09:53:43.488Z,22.36
2018-10-21T09:56:12.585Z,21.85
2018-10-21T09:58:41.751Z,22.29
2018-10-21T10:01:15.901Z,22.81
2018-10-21T10:03:45.076Z,22.54
2018-10-21T10:06:14.302Z,22.34
2018-10-21T10:08:44.095Z,22.13
2018-10-21T10:11:13.406Z,22.01
2018-10-21T10:13:42.511Z,22.23
2018-10-21T10:16:11.842Z,22.50
2018-10-21T10:18:41.323Z,22.04
2018-10-21T10:21:11.196Z,22.38
2018-10-21T10:23:40.259Z,22.57
2018-10-21T10:26:09.578Z,22.72
2018-10-21T10:28:38.826Z,22.71
2018-10-21T10:31:08.027Z,22.68
2018-10-21T10:33:37.343Z,23.28
2018-10-21T10:36:06.911Z,23.22
2018-10-21T10:38:36.021Z,23.20
2018-10-21T10:41:05.454Z,23.46
2018-10-21T10:43:34.793Z,23.69
2018-10-21T10:46:03.917Z,23.50
2018-10-21T10:48:33.058Z,22.57
2018-10-21T10:51:02.213Z,22.99
2018-10-21T10:53:31.462Z,23.15
2018-10-21T10:56:00.868Z,23.48
2018-10-21T10:58:30.112Z,23.22
2018-10-21T11:00:59.358Z,23.39
2018-10-21T11:03:28.631Z,23.33
2018-10-21T11:05:57.856Z,23.25
2018-10-21T11:08:26.991Z,23.35
2018-10-21T11:10:56.463Z,23.46
2018-10-21T11:13:25.563Z,23.42
2018-10-21T11:15:54.924Z,23.69
2018-10-21T11:18:24.183Z,24.04
2018-10-21T11:20:53.474Z,23.74
2018-10-21T11:23:22.950Z,23.87
2018-10-21T11:25:52.654Z,23.75
2018-10-21T11:28:21.790Z,23.28
2018-10-21T11:30:51.058Z,23.67
2018-10-21T11:33:20.534Z,23.59
2018-10-21T11:35:49.715Z,23.39
2018-10-21T11:38:18.894Z,22.66
2018-10-21T11:40:48.250Z,22.35
2018-10-21T11:43:17.556Z,22.88
2018-10-21T11:45:53.845Z,22.63
2018-10-21T11:48:23.608Z,23.43
2018-10-21T11:50:52.686Z,23.33
2018-10-21T11:53:21.962Z,23.55
2018-10-21T11:55:51.056Z,23.46
2018-10-21T11:58:20.424Z,23.93
2018-10-21T12:00:49.951Z,23.75
2018-10-21T12:03:19.252Z,23.60
2018-10-21T12:05:48.387Z,23.60
2018-10-21T12:08:17.925Z,22.54
2018-10-21T12:10:47.146Z,23.25
2018-10-21T12:13:16.826Z,23.26
2018-10-21T12:15:46.402Z,23.46
2018-10-21T12:18:15.605Z,22.51
2018-10-21T12:20:44.936Z,22.74
2018-10-21T12:23:14.151Z,22.89
2018-10-21T12:25:43.498Z,22.28
2018-10-21T12:28:12.683Z,22.89
2018-10-21T12:30:41.714Z,23.42
2018-10-21T12:33:10.779Z,22.45
2018-10-21T12:35:40.046Z,23.02
2018-10-21T12:38:09.382Z,22.37
2018-10-21T12:40:38.581Z,22.07
2018-10-21T12:43:08.189Z,21.55
2018-10-21T12:45:37.336Z,22.50
2018-10-21T12:48:06.556Z,22.67
2018-10-21T12:50:35.693Z,22.49
2018-10-21T12:53:05.170Z,22.60
2018-10-21T12:55:38.485Z,21.75
2018-10-21T12:58:07.810Z,22.09
2018-10-21T13:00:36.982Z,22.51
2018-10-21T13:03:06.194Z,21.76
2018-10-21T13:05:36.459Z,21.58
2018-10-21T13:08:05.851Z,22.00
2018-10-21T13:10:35.226Z,22.03
2018-10-21T13:13:04.771Z,22.41
2018-10-21T13:15:33.901Z,22.95
2018-10-21T13:18:03.154Z,22.83
2018-10-21T13:20:32.344Z,22.93
2018-10-21T13:23:01.760Z,22.93
2018-10-21T13:25:30.936Z,22.77
2018-10-21T13:28:00.271Z,22.97
2018-10-21T13:30:29.396Z,22.67
2018-10-21T13:32:58.519Z,23.08
2018-10-21T13:35:28.146Z,23.01
2018-10-21T13:37:57.194Z,22.78
2018-10-21T13:40:26.464Z,22.95
2018-10-21T13:42:55.804Z,22.94
2018-10-21T13:45:25.075Z,23.14
2018-10-21T13:47:54.322Z,22.80
2018-10-21T13:50:24.179Z,22.68
2018-10-21T13:52:53.282Z,23.01
2018-10-21T13:55:22.450Z,23.13
2018-10-21T13:57:51.964Z,23.07
2018-10-21T14:00:21.195Z,23.12
2018-10-21T14:02:50.397Z,23.04
2018-10-21T14:05:19.488Z,22.88
2018-10-21T14:07:48.596Z,22.70
2018-10-21T14:10:18.569Z,22.87
2018-10-21T14:12:47.867Z,22.77
2018-10-21T14:15:17.064Z,22.53
2018-10-21T14:17:46.264Z,22.79
2018-10-21T14:20:15.773Z,22.48
2018-10-21T14:22:45.073Z,22.44
2018-10-21T14:25:14.212Z,22.24
2018-10-21T14:27:43.748Z,22.22
2018-10-21T14:30:12.889Z,21.85
2018-10-21T14:32:41.908Z,21.88
2018-10-21T14:35:11.702Z,21.80
2018-10-21T14:37:40.876Z,21.78
2018-10-21T14:40:12.575Z,21.72
2018-10-21T14:42:41.902Z,21.55
2018-10-21T14:45:12.600Z,21.51
2018-10-21T14:47:42.281Z,21.31
2018-10-21T14:50:12.679Z,21.23
2018-10-21T14:52:41.874Z,21.20
2018-10-21T14:55:11.748Z,20.93
2018-10-21T14:57:41.240Z,20.83
2018-10-21T15:00:12.274Z,20.52
2018-10-21T15:02:41.547Z,20.38
2018-10-21T15:05:12.395Z,20.26
2018-10-21T15:07:42.700Z,20.25
2018-10-21T15:10:12.291Z,20.15
2018-10-21T15:12:41.521Z,20.27
2018-10-21T15:15:11.339Z,20.17
2018-10-21T15:17:40.793Z,19.88
2018-10-21T15:22:39.248Z,20.53
2018-10-21T15:25:10.138Z,19.90
2018-10-21T15:27:39.505Z,20.65
2018-10-21T15:30:09.738Z,20.87
2018-10-21T15:32:39.687Z,20.18
2018-10-21T15:35:08.966Z,19.89
2018-10-21T15:37:38.331Z,19.41
2018-10-21T15:40:08.818Z,18.96
2018-10-21T15:42:37.981Z,19.12
2018-10-21T15:45:09.499Z,19.07
2018-10-21T15:47:38.982Z,18.84
2018-10-21T15:50:08.790Z,18.79
2018-10-21T15:52:38.211Z,19.33
2018-10-21T15:55:08.421Z,18.59
2018-10-21T15:57:37.484Z,18.70
2018-10-21T16:00:09.255Z,18.92
2018-10-21T16:02:38.590Z,19.29
2018-10-21T16:05:08.693Z,19.29
2018-10-21T16:07:38.914Z,19.96
2018-10-21T16:10:09.095Z,19.16
2018-10-21T16:12:38.477Z,18.65
2018-10-21T16:15:10.736Z,18.31
2018-10-21T16:17:39.918Z,18.32
2018-10-21T16:20:09.116Z,18.12
2018-10-21T16:22:40.027Z,17.98
2018-10-21T16:25:11.790Z,17.91
2018-10-21T16:27:41.858Z,17.81
2018-10-21T16:30:13.900Z,17.70
2018-10-21T16:32:44.002Z,17.73
2018-10-21T16:35:13.956Z,17.74
2018-10-21T16:37:43.208Z,17.82
2018-10-21T16:40:14.393Z,17.69
2018-10-21T16:42:43.513Z,17.73
2018-10-21T16:45:13.804Z,17.77
2018-10-21T16:47:43.515Z,17.72
2018-10-21T16:50:14.510Z,17.69
2018-10-21T16:52:44.810Z,18.00
2018-10-21T16:55:15.054Z,17.97
2018-10-21T16:57:44.204Z,18.23
2018-10-21T17:00:17.450Z,18.04
2018-10-21T17:02:47.264Z,17.92
2018-10-21T17:05:16.575Z,17.85
2018-10-21T17:07:45.867Z,17.84
2018-10-21T17:10:15.306Z,17.95
2018-10-21T17:12:44.212Z,17.95
2018-10-21T17:15:13.490Z,17.83
2018-10-21T17:17:43.538Z,17.75
2018-10-21T17:20:15.265Z,17.68
2018-10-21T17:22:44.913Z,17.60
2018-10-21T17:25:14.671Z,17.60
2018-10-21T17:27:44.877Z,17.50
2018-10-21T17:30:18.462Z,17.52
2018-10-21T17:32:48.250Z,17.59
2018-10-21T17:35:17.601Z,17.60
2018-10-21T17:37:47.227Z,17.77
2018-10-21T17:40:16.879Z,18.23
2018-10-21T17:42:46.902Z,18.33
2018-10-21T17:45:16.352Z,18.73
2018-10-21T17:47:45.808Z,18.67
2018-10-21T17:50:15.711Z,18.64
2018-10-21T17:52:45.761Z,18.59
2018-10-21T17:55:15.493Z,18.67
2018-10-21T17:57:44.706Z,18.65
2018-10-21T18:00:14.537Z,18.98
2018-10-21T18:02:43.702Z,18.91
2018-10-21T18:05:14.324Z,18.47
2018-10-21T18:07:43.846Z,18.29
2018-10-21T18:10:13.896Z,18.54
2018-10-21T18:12:43.005Z,18.14
2018-10-21T18:15:12.891Z,17.92
2018-10-21T18:17:42.567Z,18.08
2018-10-21T18:20:13.051Z,18.50
2018-10-21T18:22:42.287Z,18.55
2018-10-21T18:25:11.942Z,18.49
2018-10-21T18:27:41.547Z,18.61
2018-10-21T18:30:12.004Z,18.65
2018-10-21T18:32:42.001Z,18.53
2018-10-21T18:35:12.990Z,18.76
2018-10-21T18:37:42.275Z,18.64
2018-10-21T18:40:12.319Z,18.56
2018-10-21T18:42:42.951Z,18.64
2018-10-21T18:45:14.270Z,18.72
2018-10-21T18:47:44.041Z,18.67
2018-10-21T18:50:15.174Z,18.52
2018-10-21T18:52:44.691Z,18.38
2018-10-21T18:55:14.467Z,18.28
2018-10-21T18:57:43.635Z,18.18
2018-10-21T19:00:15.120Z,18.27
2018-10-21T19:02:44.697Z,18.36
2018-10-21T19:05:14.392Z,18.19
2018-10-21T19:07:43.756Z,18.09
2018-10-21T19:10:14.496Z,17.95
2018-10-21T19:12:43.625Z,17.84
2018-10-21T19:15:13.617Z,17.80
2018-10-21T19:17:43.210Z,17.83
2018-10-21T19:20:15.159Z,17.72
2018-10-21T19:22:44.737Z,17.66
2018-10-21T19:25:15.139Z,17.91
2018-10-21T19:27:45.370Z,18.06
2018-10-21T19:30:15.006Z,18.39
2018-10-21T19:32:44.570Z,18.24
2018-10-21T19:35:15.153Z,18.26
2018-10-21T19:37:44.361Z,18.27
2018-10-21T19:40:14.843Z,18.06
2018-10-21T19:42:44.287Z,17.70
2018-10-21T19:45:15.063Z,17.84
2018-10-21T19:47:44.130Z,17.93
2018-10-21T19:50:14.572Z,17.98
2018-10-21T19:52:44.228Z,17.87
2018-10-21T19:55:14.129Z,17.85
2018-10-21T19:57:44.077Z,17.72
2018-10-21T20:00:15.577Z,18.26
2018-10-21T20:02:45.267Z,17.97
2018-10-21T20:05:14.457Z,18.17
2018-10-21T20:07:43.509Z,17.90
2018-10-21T20:10:14.529Z,17.72
2018-10-21T20:12:44.047Z,17.47
2018-10-21T20:15:13.893Z,17.43
2018-10-21T20:17:43.246Z,17.49
2018-10-21T20:20:12.901Z,17.52
2018-10-21T20:22:41.924Z,17.75
2018-10-21T20:25:11.527Z,17.45
2018-10-21T20:27:41.302Z,17.42
2018-10-21T20:30:11.807Z,17.41
2018-10-21T20:32:41.491Z,17.52
2018-10-21T20:35:11.913Z,17.31
2018-10-21T20:37:41.123Z,17.38
2018-10-21T20:40:11.044Z,17.20
2018-10-21T20:42:40.511Z,17.14
2018-10-21T20:45:11.389Z,17.16
2018-10-21T20:47:40.511Z,17.03
2018-10-21T20:50:09.904Z,16.96
2018-10-21T20:52:39.457Z,16.85
2018-10-21T20:55:08.636Z,16.80
2018-10-21T20:57:37.953Z,16.68
2018-10-21T21:00:07.646Z,16.64
2018-10-21T21:02:36.708Z,16.48
2018-10-21T21:05:06.915Z,16.39
2018-10-21T21:07:37.484Z,16.33
2018-10-21T21:10:07.690Z,16.48
2018-10-21T21:12:36.981Z,16.49
2018-10-21T21:15:07.193Z,16.65
2018-10-21T21:17:36.404Z,16.52
2018-10-21T21:20:06.085Z,16.62
2018-10-21T21:22:35.925Z,16.66
2018-10-21T21:25:05.862Z,16.66
2018-10-21T21:27:35.370Z,17.03
2018-10-21T21:30:05.062Z,16.85
2018-10-21T21:32:34.369Z,16.67
2018-10-21T21:35:03.550Z,16.53
2018-10-21T21:37:33.037Z,16.57
2018-10-21T21:40:02.178Z,16.47
2018-10-21T21:42:31.363Z,16.59
2018-10-21T21:45:00.843Z,16.48
2018-10-21T21:47:29.858Z,16.43
2018-10-21T21:49:58.903Z,16.30
2018-10-21T21:52:28.010Z,16.33
2018-10-21T21:54:57.170Z,16.46
2018-10-21T21:57:26.307Z,16.39
2018-10-21T21:59:55.477Z,16.38
2018-10-21T22:02:24.768Z,16.44
2018-10-21T22:04:53.931Z,16.75
2018-10-21T22:07:23.353Z,16.50
2018-10-21T22:09:52.461Z,16.59
2018-10-21T22:12:21.724Z,16.41
2018-10-21T22:14:50.849Z,16.83
2018-10-21T22:17:19.999Z,17.13
2018-10-21T22:19:49.590Z,16.86
2018-10-21T22:22:19.126Z,16.58
2018-10-21T22:24:48.705Z,16.46
2018-10-21T22:27:17.883Z,16.50
2018-10-21T22:29:47.414Z,16.53
2018-10-21T22:32:16.663Z,16.38
2018-10-21T22:34:46.380Z,16.52
2018-10-21T22:37:15.900Z,16.52
2018-10-21T22:39:44.981Z,16.39
2018-10-21T22:42:14.382Z,16.45
2018-10-21T22:44:43.617Z,16.37
2018-10-21T22:47:13.000Z,16.33
2018-10-21T22:49:42.087Z,16.34
2018-10-21T22:52:11.724Z,16.33
2018-10-21T22:54:41.010Z,16.49
2018-10-21T22:57:15.616Z,16.41
2018-10-21T22:59:45.224Z,16.17
2018-10-21T23:02:14.795Z,16.17
2018-10-21T23:04:44.940Z,16.26
2018-10-21T23:07:14.461Z,16.32
2018-10-21T23:09:43.595Z,16.33
2018-10-21T23:12:13.353Z,16.32
2018-10-21T23:14:42.462Z,16.16
2018-10-21T23:17:11.689Z,16.36
2018-10-21T23:19:43.176Z,16.24
2018-10-21T23:22:12.393Z,16.34
2018-10-21T23:24:42.114Z,16.31
2018-10-21T23:27:12.313Z,16.35
2018-10-21T23:29:42.597Z,16.14
2018-10-21T23:32:11.772Z,16.19
2018-10-21T23:34:40.925Z,16.22
2018-10-21T23:37:10.246Z,16.30
2018-10-21T23:39:39.368Z,16.39
2018-10-21T23:42:09.450Z,16.53
2018-10-21T23:44:38.476Z,16.70
2018-10-21T23:47:07.590Z,16.56
2018-10-21T23:49:37.288Z,16.43
2018-10-21T23:52:07.928Z,16.56
2018-10-21T23:54:37.166Z,16.64
2018-10-21T23:57:07.807Z,16.79
2018-10-21T23:59:37.885Z,16.74
